Terminal Aerodrome Forecast
Issued by NWS Detroit/Pontiac, MI

Home | Current Version | Previous Version | Text Only | Print | Product List | Glossary On
Versions: 1 2 3 4 5 6 7 8 9 10 11 12 13 14 15 16 17 18 19 20
000
FTUS43 KDTX 311140
TAFFNT
TAF
KFNT 311140Z 3112/0112 23007KT P6SM BKN030 OVC060
     FM311800 24009KT P6SM OVC015
     FM010000 23005KT P6SM OVC010
     FM011000 VRB03KT 1SM -SN OVC008=

USA.gov is the U.S. government's official web portal to all federal, state and local government web resources and services.